createdAt,value
2022-08-19T00:06:47.866Z,20.75
2022-08-19T00:16:49.213Z,23.83
2022-08-19T00:26:51.339Z,20.92
2022-08-19T00:36:52.660Z,22.55
2022-08-19T00:46:57.819Z,23.92
2022-08-19T00:57:00.430Z,21.95
2022-08-19T01:07:01.753Z,24.85
2022-08-19T01:17:03.137Z,21.55
2022-08-19T01:27:04.765Z,23.95
2022-08-19T01:37:09.559Z,20.85
2022-08-19T01:47:10.961Z,23.75
2022-08-19T01:57:12.374Z,21.45
2022-08-19T02:07:13.705Z,22.17
2022-08-19T02:17:15.069Z,21.30
2022-08-19T02:27:16.422Z,23.83
2022-08-19T02:37:36.812Z,24.23
2022-08-19T02:47:38.144Z,23.70
2022-08-19T02:57:39.494Z,25.40
2022-08-19T03:07:40.843Z,27.48
2022-08-19T03:17:42.177Z,27.83
2022-08-19T03:27:43.554Z,24.63
2022-08-19T03:37:44.900Z,26.55
2022-08-19T03:47:46.476Z,26.98
2022-08-19T03:57:49.641Z,25.42
2022-08-19T04:07:50.991Z,25.25
2022-08-19T04:17:52.338Z,24.33
2022-08-19T04:27:53.672Z,24.63
2022-08-19T04:37:55.018Z,25.73
2022-08-19T04:47:58.446Z,24.40
2022-08-19T04:58:00.669Z,27.25
2022-08-19T05:08:02.034Z,24.25
2022-08-19T05:18:21.937Z,25.15
2022-08-19T05:28:23.294Z,25.50
2022-08-19T05:38:24.646Z,25.80
2022-08-19T05:48:26.001Z,23.45
2022-08-19T05:58:28.112Z,22.30
2022-08-19T06:08:34.119Z,22.17
2022-08-19T06:18:36.035Z,22.17
2022-08-19T06:28:37.393Z,21.13
2022-08-19T06:38:38.740Z,22.55
2022-08-19T06:48:45.143Z,19.17
2022-08-19T06:58:47.764Z,18.38
2022-08-19T07:08:49.179Z,17.00
2022-08-19T07:18:50.517Z,17.48
2022-08-19T07:28:53.061Z,15.27
2022-08-19T07:38:55.522Z,17.30
2022-08-19T07:48:56.857Z,13.25
2022-08-19T07:58:58.398Z,15.18
2022-08-19T08:09:12.223Z,14.05
2022-08-19T08:19:25.389Z,16.10
2022-08-19T08:29:27.318Z,12.37
2022-08-19T08:39:36.547Z,15.80
2022-08-19T08:49:37.927Z,15.85
2022-08-19T08:59:39.347Z,14.40
2022-08-19T09:09:42.086Z,13.30
2022-08-19T09:19:43.526Z,13.60
2022-08-19T09:29:44.843Z,14.38
2022-08-19T09:39:46.155Z,11.95
2022-08-19T09:49:49.788Z,10.27
2022-08-19T09:59:51.148Z,10.57
2022-08-19T10:09:52.396Z,10.63
2022-08-19T10:19:55.015Z,11.32
2022-08-19T10:40:00.228Z,11.32
2022-08-19T10:50:20.585Z,12.18
2022-08-19T11:00:21.990Z,10.98
2022-08-19T11:10:24.551Z,9.82
2022-08-19T11:20:26.263Z,10.43
2022-08-19T11:30:28.887Z,8.85
2022-08-19T11:40:30.230Z,9.87
2022-08-19T11:50:31.489Z,8.10
2022-08-19T12:00:32.828Z,9.13
2022-08-19T12:10:34.149Z,7.80
2022-08-19T12:20:35.562Z,9.65
2022-08-19T12:30:37.851Z,7.13
2022-08-19T12:40:41.005Z,6.57
2022-08-19T12:50:42.357Z,5.95
2022-08-19T13:00:43.741Z,5.28
2022-08-19T13:10:45.091Z,4.72
2022-08-19T13:20:52.503Z,4.65
2022-08-19T13:31:13.303Z,4.55
2022-08-19T13:41:15.021Z,4.55
2022-08-19T13:51:17.411Z,6.15
2022-08-19T14:01:18.794Z,4.43
2022-08-19T14:11:20.695Z,6.28
2022-08-19T14:21:22.113Z,4.80
2022-08-19T14:31:27.861Z,5.25
2022-08-19T14:41:31.994Z,5.03
2022-08-19T14:51:33.305Z,6.10
2022-08-19T15:01:35.059Z,5.00
2022-08-19T15:11:36.610Z,7.03
2022-08-19T15:21:37.923Z,5.82
2022-08-19T15:31:40.084Z,6.60
2022-08-19T15:41:41.408Z,5.13
2022-08-19T15:51:43.633Z,7.15
2022-08-19T16:02:03.863Z,5.13
2022-08-19T16:12:05.219Z,4.88
2022-08-19T16:22:06.572Z,5.18
2022-08-19T16:32:07.943Z,7.43
2022-08-19T16:42:09.294Z,7.38
2022-08-19T16:52:10.592Z,7.22
2022-08-19T17:02:12.055Z,7.35
2022-08-19T17:12:13.310Z,9.68
2022-08-19T17:22:14.561Z,10.65
2022-08-19T17:32:15.862Z,9.52
2022-08-19T17:42:25.866Z,7.75
2022-08-19T17:52:27.484Z,7.18
2022-08-19T18:02:29.237Z,8.15
2022-08-19T18:12:31.445Z,7.50
2022-08-19T18:22:35.527Z,7.40
2022-08-19T18:32:38.322Z,8.27
2022-08-19T18:42:58.570Z,5.40
2022-08-19T18:52:59.859Z,6.13
2022-08-19T19:03:01.507Z,8.65
2022-08-19T19:13:02.892Z,5.88
2022-08-19T19:23:04.149Z,9.77
2022-08-19T19:33:05.963Z,5.35
2022-08-19T19:43:07.556Z,6.97
2022-08-19T19:53:09.870Z,7.72
2022-08-19T20:03:11.277Z,10.00
2022-08-19T20:13:15.454Z,6.43
2022-08-19T20:23:16.867Z,7.57
2022-08-19T20:33:18.879Z,10.68
2022-08-19T20:43:20.328Z,4.97
2022-08-19T20:53:23.410Z,4.90
2022-08-19T21:03:24.909Z,4.70
2022-08-19T21:13:26.284Z,5.28
2022-08-19T21:23:27.656Z,3.60
2022-08-19T21:33:31.761Z,3.85
2022-08-19T21:43:33.400Z,2.30
2022-08-19T21:53:34.914Z,3.15
2022-08-19T22:03:36.283Z,4.60
2022-08-19T22:13:39.929Z,3.35
2022-08-19T22:23:41.766Z,2.88
2022-08-19T22:33:43.129Z,4.25
2022-08-19T22:43:47.050Z,3.58
2022-08-19T22:53:48.389Z,2.92
2022-08-19T23:03:49.735Z,2.65
2022-08-19T23:13:51.057Z,2.63
2022-08-19T23:23:53.525Z,3.40
2022-08-19T23:33:54.876Z,2.70
2022-08-19T23:43:56.516Z,5.93
2022-08-19T23:53:57.911Z,3.33
